createdAt,value
2023-04-02T00:00:53.132Z,0.00
2023-04-02T00:01:53.173Z,0.00
2023-04-02T00:02:53.156Z,0.00
2023-04-02T00:03:53.135Z,0.00
2023-04-02T00:04:53.093Z,0.00
2023-04-02T00:05:53.072Z,0.00
2023-04-02T00:06:53.064Z,0.00
2023-04-02T00:07:53.056Z,0.00
2023-04-02T00:08:53.043Z,0.00
2023-04-02T00:09:53.043Z,0.00
2023-04-02T00:10:53.073Z,0.00
2023-04-02T00:11:53.015Z,0.00
2023-04-02T00:12:53.022Z,0.00
2023-04-02T00:13:53.002Z,0.00
2023-04-02T00:14:52.999Z,0.00
2023-04-02T00:15:52.977Z,0.00
2023-04-02T00:16:53.092Z,0.00
2023-04-02T00:17:52.981Z,0.00
2023-04-02T00:18:52.952Z,0.00
2023-04-02T00:19:52.950Z,0.00
2023-04-02T00:20:52.938Z,0.00
2023-04-02T00:21:52.919Z,0.00
2023-04-02T00:22:52.910Z,0.00
2023-04-02T00:23:52.895Z,0.00
2023-04-02T00:24:52.899Z,0.00
2023-04-02T00:25:52.878Z,0.00
2023-04-02T00:26:52.877Z,0.00
2023-04-02T00:27:52.855Z,0.00
2023-04-02T00:28:52.859Z,0.00
2023-04-02T00:29:52.853Z,0.00
2023-04-02T00:30:52.832Z,0.00
2023-04-02T00:31:52.984Z,0.00
2023-04-02T00:32:52.846Z,0.00
2023-04-02T00:33:52.793Z,0.00
2023-04-02T00:34:52.798Z,0.00
2023-04-02T00:35:52.866Z,0.00
2023-04-02T00:36:52.761Z,0.00
2023-04-02T00:37:52.751Z,0.00
2023-04-02T00:38:52.737Z,0.00
2023-04-02T00:39:52.738Z,0.00
2023-04-02T00:40:52.716Z,0.00
2023-04-02T00:41:52.731Z,0.00
2023-04-02T00:42:52.715Z,0.00
2023-04-02T00:43:52.712Z,0.00
2023-04-02T00:44:52.709Z,0.00
2023-04-02T00:45:52.775Z,0.00
2023-04-02T00:46:52.663Z,0.00
2023-04-02T00:47:52.695Z,0.00
2023-04-02T00:48:52.644Z,0.00
2023-04-02T00:49:52.634Z,0.00
2023-04-02T00:50:52.620Z,0.00
2023-04-02T00:51:52.609Z,0.00
2023-04-02T00:52:52.611Z,0.00
2023-04-02T00:53:52.581Z,0.00
2023-04-02T00:54:52.598Z,0.00
2023-04-02T00:55:52.559Z,0.00
2023-04-02T00:56:52.559Z,0.00
2023-04-02T00:57:52.542Z,0.00
2023-04-02T00:58:52.543Z,0.00
2023-04-02T00:59:52.532Z,0.00
2023-04-02T01:00:52.519Z,0.00
2023-04-02T01:01:52.559Z,0.00
2023-04-02T01:02:52.594Z,0.00
2023-04-02T01:03:52.551Z,0.00
2023-04-02T01:04:52.483Z,0.00
2023-04-02T01:05:52.456Z,0.00
2023-04-02T01:06:52.465Z,0.00
2023-04-02T01:07:52.436Z,0.00
2023-04-02T01:08:52.433Z,0.00
2023-04-02T01:09:52.436Z,0.00
2023-04-02T01:10:52.419Z,0.00
2023-04-02T01:11:52.408Z,0.00
2023-04-02T01:12:52.385Z,0.00
2023-04-02T01:13:52.379Z,0.00
2023-04-02T01:14:52.381Z,0.00
2023-04-02T01:15:52.393Z,0.00
2023-04-02T01:16:52.340Z,0.00
2023-04-02T01:17:52.338Z,0.00
2023-04-02T01:18:52.344Z,0.00
2023-04-02T01:19:52.331Z,0.00
2023-04-02T01:20:52.305Z,0.00
2023-04-02T01:21:52.292Z,0.00
2023-04-02T01:22:52.293Z,0.00
2023-04-02T01:23:52.268Z,0.00
2023-04-02T01:24:52.278Z,0.00
2023-04-02T01:25:52.254Z,0.00
2023-04-02T01:26:52.250Z,0.00
2023-04-02T01:27:52.241Z,0.00
2023-04-02T01:28:52.239Z,0.00
2023-04-02T01:29:52.223Z,0.00
2023-04-02T01:30:52.200Z,0.00
2023-04-02T01:31:52.225Z,0.00
2023-04-02T01:32:52.240Z,0.00
2023-04-02T01:33:52.168Z,0.00
2023-04-02T01:34:52.202Z,0.00
2023-04-02T01:35:52.191Z,0.00
2023-04-02T01:36:52.168Z,0.00
2023-04-02T01:37:52.139Z,0.00
2023-04-02T01:38:52.120Z,0.00
2023-04-02T01:39:52.116Z,0.00
2023-04-02T01:40:52.101Z,0.00
2023-04-02T01:41:52.084Z,0.00
2023-04-02T01:42:52.088Z,0.00
2023-04-02T01:43:52.062Z,0.00
2023-04-02T01:44:52.071Z,0.00
2023-04-02T01:45:52.044Z,0.00
2023-04-02T01:46:52.077Z,0.00
2023-04-02T01:47:52.076Z,0.00
2023-04-02T01:48:52.029Z,0.00
2023-04-02T01:49:52.026Z,0.00
2023-04-02T01:50:51.989Z,0.00
2023-04-02T01:51:51.980Z,0.00
2023-04-02T01:52:51.971Z,0.00
2023-04-02T01:53:51.963Z,0.00
2023-04-02T01:54:51.964Z,0.00
2023-04-02T01:55:51.945Z,0.00
2023-04-02T01:56:51.947Z,0.00
2023-04-02T01:57:51.923Z,0.00
2023-04-02T01:58:51.920Z,0.00
2023-04-02T01:59:51.919Z,0.00
2023-04-02T02:00:51.921Z,0.00
2023-04-02T02:01:51.920Z,0.00
2023-04-02T02:02:51.969Z,0.00
2023-04-02T02:03:51.851Z,0.00
2023-04-02T02:04:51.884Z,0.00
2023-04-02T02:05:51.838Z,0.00
2023-04-02T02:06:51.846Z,0.00
2023-04-02T02:07:51.824Z,0.00
2023-04-02T02:08:51.809Z,0.00
2023-04-02T02:09:51.807Z,0.00
2023-04-02T02:10:51.821Z,0.00
2023-04-02T02:11:51.780Z,0.00
2023-04-02T02:12:51.766Z,0.00
2023-04-02T02:13:51.770Z,0.00
2023-04-02T02:14:51.766Z,0.00
2023-04-02T02:15:51.733Z,0.00
2023-04-02T02:16:51.727Z,0.00
2023-04-02T02:17:51.777Z,0.00
2023-04-02T02:18:51.707Z,0.00
2023-04-02T02:19:51.703Z,0.00
2023-04-02T02:20:51.688Z,0.00
2023-04-02T02:21:51.671Z,0.00
2023-04-02T02:22:51.693Z,0.00
2023-04-02T02:23:51.650Z,0.00
2023-04-02T02:24:51.673Z,0.00
2023-04-02T02:25:51.648Z,0.00
2023-04-02T02:26:51.626Z,0.00
2023-04-02T02:27:51.623Z,0.00
2023-04-02T02:28:51.600Z,0.00
2023-04-02T02:29:51.605Z,0.00
2023-04-02T02:30:51.602Z,0.00
2023-04-02T02:31:51.602Z,0.00
2023-04-02T02:32:51.591Z,0.00
2023-04-02T02:33:51.571Z,0.00
2023-04-02T02:34:51.532Z,0.00
2023-04-02T02:35:51.571Z,0.00
2023-04-02T02:36:51.518Z,0.00
2023-04-02T02:37:51.533Z,0.00
2023-04-02T02:38:53.157Z,0.00
2023-04-02T02:39:51.510Z,0.00
2023-04-02T02:40:51.498Z,0.00
2023-04-02T02:41:51.474Z,0.00
2023-04-02T02:42:51.468Z,0.00
2023-04-02T02:43:51.445Z,0.00
2023-04-02T02:44:51.431Z,0.00
2023-04-02T02:45:51.466Z,0.00
2023-04-02T02:46:51.416Z,0.00
2023-04-02T02:47:51.463Z,0.00
2023-04-02T02:48:51.390Z,0.00
2023-04-02T02:49:51.400Z,0.00
2023-04-02T02:50:51.394Z,0.00
2023-04-02T02:51:51.359Z,0.00
2023-04-02T02:52:51.352Z,0.00
2023-04-02T02:53:51.342Z,0.00
2023-04-02T02:54:51.346Z,0.00
2023-04-02T02:55:51.342Z,0.00
2023-04-02T02:56:51.363Z,0.00
2023-04-02T02:57:51.302Z,0.00
2023-04-02T02:58:51.286Z,0.00
2023-04-02T02:59:51.283Z,0.00
2023-04-02T03:00:51.295Z,0.00
2023-04-02T03:01:51.317Z,0.00
2023-04-02T03:02:51.356Z,0.00
2023-04-02T03:03:51.346Z,0.00
2023-04-02T03:04:51.231Z,0.00
2023-04-02T03:05:51.232Z,0.00
2023-04-02T03:06:51.202Z,0.00
2023-04-02T03:07:51.197Z,0.00
2023-04-02T03:08:51.187Z,0.00
2023-04-02T03:09:51.177Z,0.00
2023-04-02T03:10:51.175Z,0.00
2023-04-02T03:11:51.157Z,0.00
2023-04-02T03:12:51.197Z,0.00
2023-04-02T03:13:51.133Z,0.00
2023-04-02T03:14:51.133Z,0.00
2023-04-02T03:15:51.171Z,0.00
2023-04-02T03:16:51.101Z,0.00
2023-04-02T03:17:51.126Z,0.00
2023-04-02T03:18:51.080Z,0.00
2023-04-02T03:19:51.076Z,0.00
2023-04-02T03:20:51.079Z,0.00
2023-04-02T03:21:51.056Z,0.00
2023-04-02T03:22:51.038Z,0.00
2023-04-02T03:23:51.037Z,0.00
2023-04-02T03:24:51.028Z,0.00
2023-04-02T03:25:51.025Z,0.00
2023-04-02T03:26:51.001Z,0.00
2023-04-02T03:27:51.000Z,0.00
2023-04-02T03:28:50.977Z,0.00
2023-04-02T03:29:50.975Z,0.00
2023-04-02T03:30:50.970Z,0.00
2023-04-02T03:31:50.955Z,0.00
2023-04-02T03:32:50.972Z,0.00
2023-04-02T03:33:50.932Z,0.00
2023-04-02T03:34:50.915Z,0.00
2023-04-02T03:35:50.950Z,0.00
2023-04-02T03:36:50.897Z,0.00
2023-04-02T03:37:50.901Z,0.00
2023-04-02T03:38:50.875Z,0.00
2023-04-02T03:39:50.873Z,0.00
2023-04-02T03:40:50.872Z,0.00
2023-04-02T03:41:50.859Z,0.00
2023-04-02T03:42:50.860Z,0.00
2023-04-02T03:43:50.830Z,0.00
2023-04-02T03:44:50.827Z,0.00
2023-04-02T03:45:50.828Z,0.00
2023-04-02T03:46:50.920Z,0.00
2023-04-02T03:47:50.814Z,0.00
2023-04-02T03:48:50.798Z,0.00
2023-04-02T03:49:50.772Z,0.00
2023-04-02T03:50:50.765Z,0.00
2023-04-02T03:51:50.755Z,0.00
2023-04-02T03:52:50.732Z,0.00
2023-04-02T03:53:50.729Z,0.00
2023-04-02T03:54:53.889Z,0.00
2023-04-02T03:55:50.718Z,0.00
2023-04-02T03:56:50.716Z,0.00
2023-04-02T03:57:50.696Z,0.00
2023-04-02T03:58:50.673Z,0.00
2023-04-02T03:59:50.706Z,0.00
2023-04-02T04:00:50.672Z,0.00
2023-04-02T04:01:50.668Z,0.00
2023-04-02T04:02:50.660Z,0.00
2023-04-02T04:03:50.681Z,0.00
2023-04-02T04:04:50.613Z,0.00
2023-04-02T04:05:50.622Z,0.00
2023-04-02T04:06:50.598Z,0.00
2023-04-02T04:07:50.590Z,0.00
2023-04-02T04:08:50.598Z,0.00
2023-04-02T04:09:50.565Z,0.00
2023-04-02T04:10:50.600Z,0.00
2023-04-02T04:11:50.545Z,0.00
2023-04-02T04:12:50.543Z,0.00
2023-04-02T04:13:50.530Z,0.00
2023-04-02T04:14:50.521Z,0.00
2023-04-02T04:15:50.517Z,0.00
2023-04-02T04:16:50.509Z,0.00
2023-04-02T04:17:50.528Z,0.00
2023-04-02T04:18:50.464Z,0.00
2023-04-02T04:19:50.463Z,0.00
2023-04-02T04:20:50.461Z,0.00
2023-04-02T04:21:50.446Z,0.00
2023-04-02T04:22:50.423Z,0.00
2023-04-02T04:23:50.458Z,0.00
2023-04-02T04:24:50.410Z,0.00
2023-04-02T04:25:50.415Z,0.00
2023-04-02T04:26:50.387Z,0.00
2023-04-02T04:27:50.388Z,0.00
2023-04-02T04:28:50.368Z,0.00
2023-04-02T04:29:50.362Z,0.00
2023-04-02T04:30:50.377Z,0.00
2023-04-02T04:31:50.426Z,0.00
2023-04-02T04:32:50.434Z,0.00
2023-04-02T04:33:50.331Z,0.00
2023-04-02T04:34:50.316Z,0.00
2023-04-02T04:35:50.335Z,0.00
2023-04-02T04:36:50.284Z,0.00
2023-04-02T04:37:50.287Z,0.00
2023-04-02T04:38:50.268Z,0.00
2023-04-02T04:39:50.259Z,0.00
2023-04-02T04:40:50.263Z,0.00
2023-04-02T04:41:50.247Z,0.00
2023-04-02T04:42:50.224Z,0.00
2023-04-02T04:43:50.221Z,0.00
2023-04-02T04:44:50.210Z,0.00
2023-04-02T04:45:50.300Z,0.00
2023-04-02T04:46:50.193Z,0.00
2023-04-02T04:47:50.216Z,0.00
2023-04-02T04:48:50.163Z,0.00
2023-04-02T04:49:50.158Z,0.00
2023-04-02T04:50:50.165Z,0.00
2023-04-02T04:51:50.138Z,0.00
2023-04-02T04:52:50.128Z,0.00
2023-04-02T04:53:50.120Z,0.00
2023-04-02T04:54:50.108Z,0.00
2023-04-02T04:55:50.124Z,0.00
2023-04-02T04:56:50.128Z,0.00
2023-04-02T04:57:50.079Z,0.00
2023-04-02T04:58:50.059Z,0.00
2023-04-02T04:59:50.064Z,0.00
2023-04-02T05:00:50.214Z,0.00
2023-04-02T05:01:50.151Z,0.00
2023-04-02T05:02:50.122Z,0.00
2023-04-02T05:03:50.027Z,0.00
2023-04-02T05:04:50.180Z,0.00
2023-04-02T05:05:50.022Z,0.00
2023-04-02T05:06:49.983Z,0.00
2023-04-02T05:07:49.978Z,0.00
2023-04-02T05:08:49.968Z,0.00
2023-04-02T05:09:49.973Z,0.00
2023-04-02T05:10:49.953Z,0.00
2023-04-02T05:11:49.938Z,0.00
2023-04-02T05:12:49.922Z,0.00
2023-04-02T05:13:49.920Z,0.00
2023-04-02T05:14:49.857Z,1.00
2023-04-02T05:15:49.896Z,1.00
2023-04-02T05:16:49.835Z,1.00
2023-04-02T05:17:49.847Z,1.00
2023-04-02T05:18:49.800Z,1.00
2023-04-02T05:19:49.802Z,1.00
2023-04-02T05:20:49.856Z,0.00
2023-04-02T05:21:49.846Z,0.00
2023-04-02T05:22:49.784Z,1.00
2023-04-02T05:23:49.830Z,0.00
2023-04-02T05:24:49.799Z,0.00
2023-04-02T05:25:49.835Z,0.00
2023-04-02T05:26:49.787Z,0.00
2023-04-02T05:27:49.778Z,0.00
2023-04-02T05:28:49.763Z,0.00
2023-04-02T05:29:49.754Z,0.00
2023-04-02T05:30:49.750Z,0.00
2023-04-02T05:31:49.878Z,0.00
2023-04-02T05:32:49.787Z,0.00
2023-04-02T05:33:49.719Z,0.00
2023-04-02T05:34:49.704Z,0.00
2023-04-02T05:35:49.736Z,0.00
2023-04-02T05:36:49.684Z,0.00
2023-04-02T05:37:49.686Z,0.00
2023-04-02T05:38:49.666Z,0.00
2023-04-02T05:39:49.656Z,0.00
2023-04-02T05:40:49.652Z,0.00
2023-04-02T05:41:49.635Z,0.00
2023-04-02T05:42:49.639Z,0.00
2023-04-02T05:43:49.609Z,0.00
2023-04-02T05:44:49.597Z,0.00
2023-04-02T05:45:49.615Z,0.00
2023-04-02T05:46:49.622Z,0.00
2023-04-02T05:47:49.611Z,0.00
2023-04-02T05:48:49.574Z,0.00
2023-04-02T05:49:49.513Z,2.00
2023-04-02T05:50:49.756Z,2.00
2023-04-02T05:51:49.483Z,2.00
2023-04-02T05:52:49.517Z,0.00
2023-04-02T05:53:49.516Z,0.00
2023-04-02T05:54:49.518Z,0.00
2023-04-02T05:55:49.512Z,0.00
2023-04-02T05:56:49.564Z,0.00
2023-04-02T05:57:58.998Z,0.00
2023-04-02T05:58:50.521Z,0.00
2023-04-02T05:59:49.489Z,0.00
2023-04-02T06:00:49.447Z,0.00
2023-04-02T06:01:49.554Z,0.00
2023-04-02T06:02:49.443Z,0.00
2023-04-02T06:03:49.477Z,0.00
2023-04-02T06:04:49.399Z,0.00
2023-04-02T06:05:49.396Z,0.00
2023-04-02T06:06:49.349Z,2.00
2023-04-02T06:07:49.314Z,1.00
2023-04-02T06:08:49.359Z,0.00
2023-04-02T06:09:49.313Z,1.00
2023-04-02T06:10:49.283Z,1.00
2023-04-02T06:11:49.353Z,0.00
2023-04-02T06:12:49.317Z,0.00
2023-04-02T06:13:49.306Z,0.00
2023-04-02T06:14:49.294Z,0.00
2023-04-02T06:15:49.272Z,2.00
2023-04-02T06:16:49.268Z,2.00
2023-04-02T06:17:49.239Z,3.00
2023-04-02T06:18:49.200Z,3.00
2023-04-02T06:19:49.197Z,3.00
2023-04-02T06:20:49.181Z,3.00
2023-04-02T06:21:49.189Z,4.00
2023-04-02T06:22:49.159Z,2.00
2023-04-02T06:23:49.158Z,4.00
2023-04-02T06:24:49.140Z,4.00
2023-04-02T06:25:49.139Z,8.00
2023-04-02T06:26:49.132Z,5.00
2023-04-02T06:27:49.122Z,5.00
2023-04-02T06:28:49.096Z,5.00
2023-04-02T06:29:49.094Z,1.00
2023-04-02T06:30:49.108Z,1.00
2023-04-02T06:31:49.515Z,1.00
2023-04-02T06:32:49.106Z,2.00
2023-04-02T06:33:49.058Z,2.00
2023-04-02T06:34:49.040Z,8.00
2023-04-02T06:35:49.051Z,6.00
2023-04-02T06:36:49.033Z,6.00
2023-04-02T06:37:49.014Z,7.00
2023-04-02T06:38:49.008Z,9.00
2023-04-02T06:39:49.000Z,7.00
2023-04-02T06:40:48.983Z,3.00
2023-04-02T06:41:48.979Z,4.00
2023-04-02T06:42:48.965Z,6.00
2023-04-02T06:43:48.963Z,6.00
2023-04-02T06:44:48.954Z,5.00
2023-04-02T06:45:48.946Z,3.00
2023-04-02T06:46:50.573Z,5.00
2023-04-02T06:47:49.007Z,6.00
2023-04-02T06:48:48.903Z,5.00
2023-04-02T06:49:48.887Z,3.00
2023-04-02T06:50:48.897Z,3.00
2023-04-02T06:51:48.881Z,8.00
2023-04-02T06:52:48.866Z,6.00
2023-04-02T06:53:48.848Z,6.00
2023-04-02T06:54:48.876Z,6.00
2023-04-02T06:55:48.832Z,5.00
2023-04-02T06:56:48.976Z,6.00
2023-04-02T06:57:48.878Z,7.00
2023-04-02T06:58:48.818Z,4.00
2023-04-02T06:59:48.791Z,6.00
2023-04-02T07:00:48.794Z,4.00
2023-04-02T07:01:48.881Z,6.00
2023-04-02T07:02:48.810Z,5.00
2023-04-02T07:03:48.748Z,6.00
2023-04-02T07:04:48.827Z,3.00
2023-04-02T07:05:48.742Z,1.00
2023-04-02T07:06:48.744Z,2.00
2023-04-02T07:07:48.743Z,2.00
2023-04-02T07:08:48.702Z,2.00
2023-04-02T07:09:48.687Z,1.00
2023-04-02T07:10:48.676Z,2.00
2023-04-02T07:11:48.697Z,3.00
2023-04-02T07:12:48.682Z,5.00
2023-04-02T07:13:48.667Z,9.00
2023-04-02T07:14:48.637Z,8.00
2023-04-02T07:15:48.642Z,6.00
2023-04-02T07:16:48.628Z,7.00
2023-04-02T07:17:48.662Z,9.00
2023-04-02T07:18:48.596Z,8.00
2023-04-02T07:19:48.575Z,7.00
2023-04-02T07:20:48.577Z,6.00
2023-04-02T07:21:48.588Z,4.00
2023-04-02T07:22:48.551Z,5.00
2023-04-02T07:23:48.539Z,9.00
2023-04-02T07:24:48.540Z,5.00
2023-04-02T07:25:48.517Z,9.00
2023-04-02T07:26:48.528Z,9.00
2023-04-02T07:27:48.505Z,9.00
2023-04-02T07:28:48.546Z,9.00
2023-04-02T07:29:48.479Z,9.00
2023-04-02T07:30:48.476Z,9.00
2023-04-02T07:31:48.511Z,8.00
2023-04-02T07:32:48.568Z,6.00
2023-04-02T07:33:48.441Z,6.00
2023-04-02T07:34:48.435Z,6.00
2023-04-02T07:35:48.452Z,5.00
2023-04-02T07:36:48.431Z,5.00
2023-04-02T07:37:49.227Z,5.00
2023-04-02T07:38:48.391Z,5.00
2023-04-02T07:39:48.373Z,5.00
2023-04-02T07:40:48.374Z,3.00
2023-04-02T07:41:48.413Z,5.00
2023-04-02T07:42:48.351Z,6.00
2023-04-02T07:43:48.349Z,6.00
2023-04-02T07:44:48.329Z,5.00
2023-04-02T07:45:48.316Z,5.00
2023-04-02T07:46:48.338Z,5.00
2023-04-02T07:47:48.326Z,5.00
2023-04-02T07:48:48.303Z,6.00
2023-04-02T07:49:48.273Z,4.00
2023-04-02T07:50:48.281Z,6.00
2023-04-02T07:51:48.289Z,4.00
2023-04-02T07:52:48.271Z,5.00
2023-04-02T07:53:48.236Z,9.00
2023-04-02T07:54:48.239Z,4.00
2023-04-02T07:55:48.217Z,7.00
2023-04-02T07:56:48.273Z,6.00
2023-04-02T07:57:48.199Z,5.00
2023-04-02T07:58:48.189Z,7.00
2023-04-02T07:59:48.197Z,7.00
2023-04-02T08:00:48.171Z,10.00
2023-04-02T08:01:48.201Z,11.00
2023-04-02T08:02:48.202Z,8.00
2023-04-02T08:03:48.248Z,12.00
2023-04-02T08:04:48.131Z,11.00
2023-04-02T08:05:48.113Z,8.00
2023-04-02T08:06:48.119Z,10.00
2023-04-02T08:07:48.093Z,10.00
2023-04-02T08:08:48.114Z,12.00
2023-04-02T08:09:48.076Z,11.00
2023-04-02T08:10:48.077Z,7.00
2023-04-02T08:11:48.068Z,7.00
2023-04-02T08:12:48.050Z,7.00
2023-04-02T08:13:48.034Z,7.00
2023-04-02T08:14:48.030Z,12.00
2023-04-02T08:15:48.012Z,11.00
2023-04-02T08:16:48.061Z,7.00
2023-04-02T08:17:48.142Z,11.00
2023-04-02T08:18:48.018Z,11.00
2023-04-02T08:19:54.254Z,11.00
2023-04-02T08:20:48.972Z,11.00
2023-04-02T08:21:47.995Z,9.00
2023-04-02T08:22:47.952Z,11.00
2023-04-02T08:23:47.935Z,11.00
2023-04-02T08:24:47.929Z,12.00
2023-04-02T08:25:47.910Z,11.00
2023-04-02T08:26:47.947Z,10.00
2023-04-02T08:27:47.894Z,9.00
2023-04-02T08:28:47.896Z,11.00
2023-04-02T08:29:47.956Z,10.00
2023-04-02T08:30:47.950Z,12.00
2023-04-02T08:31:47.885Z,12.00
2023-04-02T08:32:47.857Z,9.00
2023-04-02T08:33:47.841Z,11.00
2023-04-02T08:34:47.834Z,12.00
2023-04-02T08:35:47.861Z,11.00
2023-04-02T08:36:47.826Z,11.00
2023-04-02T08:37:47.794Z,12.00
2023-04-02T08:38:47.791Z,11.00
2023-04-02T08:39:47.771Z,7.00
2023-04-02T08:40:47.774Z,7.00
2023-04-02T08:41:47.766Z,12.00
2023-04-02T08:42:47.745Z,10.00
2023-04-02T08:43:47.736Z,10.00
2023-04-02T08:44:47.725Z,11.00
2023-04-02T08:45:47.723Z,7.00
2023-04-02T08:46:47.735Z,8.00
2023-04-02T08:47:47.711Z,11.00
2023-04-02T08:48:47.689Z,7.00
2023-04-02T08:49:47.699Z,7.00
2023-04-02T08:50:47.671Z,8.00
2023-04-02T08:51:47.673Z,12.00
2023-04-02T08:52:47.642Z,8.00
2023-04-02T08:53:47.630Z,12.00
2023-04-02T08:54:47.636Z,10.00
2023-04-02T08:55:47.632Z,7.00
2023-04-02T08:56:47.657Z,9.00
2023-04-02T08:57:47.599Z,9.00
2023-04-02T08:58:47.589Z,17.00
2023-04-02T08:59:47.568Z,17.00
2023-04-02T09:00:47.566Z,8.00
2023-04-02T09:01:47.591Z,9.00
2023-04-02T09:02:47.602Z,13.00
2023-04-02T09:03:47.530Z,9.00
2023-04-02T09:04:47.560Z,12.00
2023-04-02T09:05:47.512Z,13.00
2023-04-02T09:06:47.501Z,10.00
2023-04-02T09:07:47.504Z,10.00
2023-04-02T09:08:47.486Z,10.00
2023-04-02T09:09:47.472Z,12.00
2023-04-02T09:10:47.511Z,9.00
2023-04-02T09:11:47.508Z,9.00
2023-04-02T09:12:47.456Z,9.00
2023-04-02T09:13:47.429Z,7.00
2023-04-02T09:14:47.431Z,7.00
2023-04-02T09:15:47.427Z,5.00
2023-04-02T09:16:47.397Z,7.00
2023-04-02T09:17:54.016Z,7.00
2023-04-02T09:18:48.380Z,7.00
2023-04-02T09:19:47.370Z,7.00
2023-04-02T09:20:47.368Z,9.00
2023-04-02T09:21:47.364Z,10.00
2023-04-02T09:22:47.374Z,9.00
2023-04-02T09:23:47.337Z,5.00
2023-04-02T09:24:47.322Z,7.00
2023-04-02T09:25:57.403Z,7.00
2023-04-02T09:26:48.305Z,7.00
2023-04-02T09:27:47.302Z,5.00
2023-04-02T09:28:47.281Z,5.00
2023-04-02T09:29:47.274Z,4.00
2023-04-02T09:30:47.263Z,8.00
2023-04-02T09:31:47.291Z,11.00
2023-04-02T09:32:47.282Z,12.00
2023-04-02T09:33:47.234Z,12.00
2023-04-02T09:34:47.230Z,9.00
2023-04-02T09:35:47.241Z,10.00
2023-04-02T09:36:47.219Z,9.00
2023-04-02T09:37:47.199Z,10.00
2023-04-02T09:38:47.179Z,9.00
2023-04-02T09:39:47.167Z,10.00
2023-04-02T09:40:47.164Z,11.00
2023-04-02T09:41:58.783Z,10.00
2023-04-02T09:42:48.160Z,10.00
2023-04-02T09:43:47.126Z,10.00
2023-04-02T09:44:47.123Z,8.00
2023-04-02T09:45:47.111Z,9.00
2023-04-02T09:46:47.141Z,9.00
2023-04-02T09:47:47.124Z,10.00
2023-04-02T09:48:47.146Z,12.00
2023-04-02T09:49:47.121Z,12.00
2023-04-02T09:50:47.069Z,13.00
2023-04-02T09:51:47.056Z,13.00
2023-04-02T09:52:47.056Z,10.00
2023-04-02T09:53:47.029Z,12.00
2023-04-02T09:54:47.016Z,12.00
2023-04-02T09:55:47.013Z,12.00
2023-04-02T09:56:47.082Z,11.00
2023-04-02T09:57:46.999Z,13.00
2023-04-02T09:58:46.976Z,6.00
2023-04-02T09:59:46.968Z,14.00
2023-04-02T10:00:47.321Z,10.00
2023-04-02T10:01:46.944Z,13.00
2023-04-02T10:02:47.016Z,9.00
2023-04-02T10:03:46.946Z,12.00
2023-04-02T10:04:46.969Z,26.00
2023-04-02T10:05:47.059Z,22.00
2023-04-02T10:06:46.904Z,15.00
2023-04-02T10:07:46.895Z,13.00
2023-04-02T10:08:46.875Z,12.00
2023-04-02T10:09:46.871Z,14.00
2023-04-02T10:10:46.855Z,18.00
2023-04-02T10:11:47.030Z,18.00
2023-04-02T10:12:46.857Z,25.00
2023-04-02T10:13:46.821Z,42.00
2023-04-02T10:14:46.813Z,27.00
2023-04-02T10:15:46.806Z,27.00
2023-04-02T10:16:46.827Z,40.00
2023-04-02T10:17:46.825Z,28.00
2023-04-02T10:18:46.805Z,18.00
2023-04-02T10:19:46.769Z,25.00
2023-04-02T10:20:51.374Z,52.00
2023-04-02T10:21:46.736Z,43.00
2023-04-02T10:22:46.755Z,45.00
2023-04-02T10:23:46.732Z,35.00
2023-04-02T10:24:46.713Z,37.00
2023-04-02T10:25:46.706Z,31.00
2023-04-02T10:26:46.697Z,41.00
2023-04-02T10:27:46.690Z,33.00
2023-04-02T10:28:46.673Z,74.00
2023-04-02T10:29:46.662Z,85.00
2023-04-02T10:30:46.687Z,60.00
2023-04-02T10:31:46.643Z,56.00
2023-04-02T10:32:46.667Z,49.00
2023-04-02T10:33:46.625Z,41.00
2023-04-02T10:34:46.617Z,41.00
2023-04-02T10:35:46.610Z,32.00
2023-04-02T10:36:46.595Z,28.00
2023-04-02T10:37:46.598Z,33.00
2023-04-02T10:38:46.585Z,29.00
2023-04-02T10:39:46.558Z,31.00
2023-04-02T10:40:46.569Z,26.00
2023-04-02T10:41:46.550Z,23.00
2023-04-02T10:42:46.548Z,20.00
2023-04-02T10:43:46.517Z,28.00
2023-04-02T10:44:46.512Z,26.00
2023-04-02T10:45:46.589Z,33.00
2023-04-02T10:46:46.509Z,34.00
2023-04-02T10:47:46.534Z,37.00
2023-04-02T10:48:46.471Z,52.00
2023-04-02T10:49:46.525Z,49.00
2023-04-02T10:50:46.459Z,37.00
2023-04-02T10:51:46.464Z,34.00
2023-04-02T10:52:46.466Z,29.00
2023-04-02T10:53:46.419Z,28.00
2023-04-02T10:54:46.414Z,22.00
2023-04-02T10:55:46.409Z,19.00
2023-04-02T10:56:51.021Z,21.00
2023-04-02T10:57:46.402Z,16.00
2023-04-02T10:58:46.371Z,15.00
2023-04-02T10:59:46.373Z,14.00
2023-04-02T11:00:46.346Z,13.00
2023-04-02T11:01:46.374Z,16.00
2023-04-02T11:02:46.497Z,18.00
2023-04-02T11:03:46.376Z,15.00
2023-04-02T11:04:46.351Z,17.00
2023-04-02T11:05:46.299Z,19.00
2023-04-02T11:06:46.303Z,19.00
2023-04-02T11:07:46.293Z,19.00
2023-04-02T11:08:46.272Z,22.00
2023-04-02T11:09:46.269Z,24.00
2023-04-02T11:10:46.247Z,18.00
2023-04-02T11:11:46.248Z,18.00
2023-04-02T11:12:46.252Z,20.00
2023-04-02T11:13:46.219Z,17.00
2023-04-02T11:14:46.214Z,19.00
2023-04-02T11:15:46.240Z,15.00
2023-04-02T11:16:46.280Z,14.00
2023-04-02T11:17:46.236Z,15.00
2023-04-02T11:18:46.177Z,18.00
2023-04-02T11:19:46.165Z,20.00
2023-04-02T11:20:46.145Z,16.00
2023-04-02T11:21:57.935Z,17.00
2023-04-02T11:22:47.139Z,15.00
2023-04-02T11:23:46.121Z,15.00
2023-04-02T11:24:46.112Z,17.00
2023-04-02T11:25:46.101Z,18.00
2023-04-02T11:26:46.150Z,15.00
2023-04-02T11:27:46.083Z,15.00
2023-04-02T11:28:46.088Z,19.00
2023-04-02T11:29:46.065Z,22.00
2023-04-02T11:30:46.042Z,20.00
2023-04-02T11:31:46.125Z,18.00
2023-04-02T11:32:46.138Z,18.00
2023-04-02T11:33:48.108Z,20.00
2023-04-02T11:34:47.073Z,15.00
2023-04-02T11:35:47.009Z,17.00
2023-04-02T11:36:45.985Z,19.00
2023-04-02T11:37:45.983Z,22.00
2023-04-02T11:38:45.974Z,20.00
2023-04-02T11:39:45.979Z,21.00
2023-04-02T11:40:45.944Z,20.00
2023-04-02T11:41:45.943Z,18.00
2023-04-02T11:42:45.933Z,15.00
2023-04-02T11:43:45.938Z,15.00
2023-04-02T11:44:45.913Z,18.00
2023-04-02T11:45:52.591Z,15.00
2023-04-02T11:46:46.909Z,18.00
2023-04-02T11:47:45.907Z,25.00
2023-04-02T11:48:45.888Z,38.00
2023-04-02T11:49:45.861Z,12.00
2023-04-02T11:50:45.859Z,28.00
2023-04-02T11:51:45.942Z,27.00
2023-04-02T11:52:45.953Z,20.00
2023-04-02T11:53:45.833Z,20.00
2023-04-02T11:54:45.801Z,18.00
2023-04-02T11:55:45.797Z,32.00
2023-04-02T11:56:45.792Z,5.00
2023-04-02T11:57:45.773Z,7.00
2023-04-02T11:58:45.771Z,8.00
2023-04-02T11:59:45.755Z,13.00
2023-04-02T12:00:45.741Z,10.00
2023-04-02T12:01:45.758Z,15.00
2023-04-02T12:02:45.820Z,17.00
2023-04-02T12:03:45.731Z,12.00
2023-04-02T12:04:45.743Z,10.00
2023-04-02T12:05:45.751Z,12.00
2023-04-02T12:06:45.677Z,12.00
2023-04-02T12:07:45.673Z,11.00
2023-04-02T12:08:57.106Z,10.00
2023-04-02T12:09:46.648Z,8.00
2023-04-02T12:10:45.636Z,9.00
2023-04-02T12:11:45.630Z,8.00
2023-04-02T12:12:45.626Z,9.00
2023-04-02T12:13:45.626Z,10.00
2023-04-02T12:14:45.611Z,20.00
2023-04-02T12:15:45.591Z,21.00
2023-04-02T12:16:45.600Z,12.00
2023-04-02T12:17:45.614Z,11.00
2023-04-02T12:18:45.575Z,155.00
2023-04-02T12:19:45.545Z,249.00
2023-04-02T12:20:45.530Z,42.00
2023-04-02T12:21:45.527Z,23.00
2023-04-02T12:22:45.519Z,20.00
2023-04-02T12:23:45.522Z,16.00
2023-04-02T12:24:45.491Z,12.00
2023-04-02T12:25:45.489Z,9.00
2023-04-02T12:26:45.474Z,8.00
2023-04-02T12:27:45.469Z,8.00
2023-04-02T12:28:45.465Z,10.00
2023-04-02T12:29:45.449Z,14.00
2023-04-02T12:30:45.457Z,14.00
2023-04-02T12:31:45.445Z,12.00
2023-04-02T12:32:45.435Z,12.00
2023-04-02T12:33:45.421Z,9.00
2023-04-02T12:34:45.391Z,10.00
2023-04-02T12:35:45.428Z,11.00
2023-04-02T12:36:45.377Z,13.00
2023-04-02T12:37:45.365Z,18.00
2023-04-02T12:38:45.365Z,49.00
2023-04-02T12:39:45.347Z,27.00
2023-04-02T12:40:45.332Z,21.00
2023-04-02T12:41:45.325Z,12.00
2023-04-02T12:42:45.309Z,14.00
2023-04-02T12:43:45.316Z,18.00
2023-04-02T12:44:45.331Z,9.00
2023-04-02T12:45:45.288Z,11.00
2023-04-02T12:46:45.277Z,17.00
2023-04-02T12:47:45.308Z,90.00
2023-04-02T12:48:45.269Z,18.00
2023-04-02T12:49:45.249Z,19.00
2023-04-02T12:50:45.244Z,16.00
2023-04-02T12:51:45.222Z,13.00
2023-04-02T12:52:45.203Z,38.00
2023-04-02T12:53:45.222Z,21.00
2023-04-02T12:54:45.191Z,23.00
2023-04-02T12:55:45.184Z,19.00
2023-04-02T12:56:45.172Z,13.00
2023-04-02T12:57:45.168Z,11.00
2023-04-02T12:58:45.159Z,10.00
2023-04-02T12:59:45.150Z,12.00
2023-04-02T13:00:45.129Z,13.00
2023-04-02T13:01:45.170Z,13.00
2023-04-02T13:02:45.153Z,17.00
2023-04-02T13:03:45.190Z,12.00
2023-04-02T13:04:45.088Z,10.00
2023-04-02T13:05:45.086Z,8.00
2023-04-02T13:06:45.070Z,7.00
2023-04-02T13:07:45.105Z,9.00
2023-04-02T13:08:45.073Z,17.00
2023-04-02T13:09:45.042Z,18.00
2023-04-02T13:10:45.033Z,12.00